Latest News: CDIP is now hiring. Job description.

KALO, MAJURO, MARSHALL ISLANDS - 163

GPS Positions

GPS Time
Latitude
Degrees
Longitude
Degrees
Gap
 
Distance
NM
Speed
Knots
Direction
Degrees
May 20, 05:11 7.08242° 171.38719° 2 min 0.28 0.00
May 20, 05:09 7.08242° 171.38719° 8 min 0.28 0.03
151°
May 20, 05:01 7.08247° 171.38716° 2 min 0.28 0.00
May 20, 04:59 7.08247° 171.38716° 8 min 0.28 0.01
May 20, 04:51 7.08244° 171.38716° 2 min 0.28 0.00
May 20, 04:49 7.08244° 171.38716° 8 min 0.28 0.02
103°
May 20, 04:41 7.08245° 171.38712° 2 min 0.28 0.02
May 20, 04:39 7.08244° 171.38712° 8 min 0.28 0.06
105°
May 20, 04:31 7.08247° 171.38699° 2 min 0.27 0.10
125°
May 20, 04:29 7.08250° 171.38695° 8 min 0.27 0.13
129°
May 20, 04:21 7.08268° 171.38672° 2 min 0.27 0.05
90°
May 20, 04:19 7.08268° 171.38669° 8 min 0.27 0.07
67°
May 20, 04:11 7.08262° 171.38654° 2 min 0.26 0.05
90°
May 20, 04:09 7.08262° 171.38651° 8 min 0.26 0.09
65°
May 20, 04:01 7.08253° 171.38632° 2 min 0.25 0.09
65°
May 20, 03:59 7.08251° 171.38628° 8 min 0.25 0.12
81°
May 20, 03:51 7.08247° 171.38600° 2 min 0.24 0.12
70°
May 20, 03:49 7.08245° 171.38594° 8 min 0.23 0.10
90°
May 20, 03:41 7.08245° 171.38573° 1 min 0.22 0.12
118°
May 20, 03:39 7.08248° 171.38567° 8 min 0.22 0.11
98°
May 20, 03:31 7.08251° 171.38542° 2 min 0.22 0.10
125°
May 20, 03:29 7.08254° 171.38538° 8 min 0.22 0.04
106°
May 20, 03:21 7.08257° 171.38530° 2 min 0.22 0.06
180°
May 20, 03:19 7.08260° 171.38530° 8 min 0.22 0.03
270°
May 20, 03:11 7.08260° 171.38538° 2 min 0.22 0.05
270°
May 20, 03:09 7.08260° 171.38541° 8 min 0.22 0.02
180°
May 20, 03:01 7.08265° 171.38541° 2 min 0.23 0.00
May 20, 02:59 7.08265° 171.38541° 8 min 0.23 0.00
May 20, 02:51 7.08265° 171.38541° 2 min 0.23 0.06
335°
May 20, 02:49 7.08262° 171.38542° 8 min 0.22 0.01
251°
May 20, 02:41 7.08263° 171.38545° 2 min 0.23 0.02
May 20, 02:39 7.08262° 171.38545° 8 min 0.22 0.04
286°
May 20, 02:31 7.08260° 171.38553° 2 min 0.23 0.05
270°
May 20, 02:29 7.08260° 171.38556° 8 min 0.23 0.05
270°
May 20, 02:21 7.08260° 171.38568° 2 min 0.23 0.08
284°
May 20, 02:19 7.08259° 171.38573° 8 min 0.23 0.04
263°
May 20, 02:11 7.08260° 171.38582° 2 min 0.23 0.11
270°
May 20, 02:09 7.08260° 171.38588° 8 min 0.24 0.05
319°
May 20, 02:01 7.08251° 171.38596° 2 min 0.24 0.08
284°
May 20, 01:59 7.08250° 171.38600° 8 min 0.24 0.08
288°
May 20, 01:51 7.08245° 171.38617° 2 min 0.24 0.06
289°
May 20, 01:49 7.08244° 171.38620° 8 min 0.24 0.10
281°
May 20, 01:41 7.08240° 171.38641° 2 min 0.25 0.00
May 20, 01:39 7.08240° 171.38641° 8 min 0.25 0.04
277°
May 20, 01:31 7.08238° 171.38651° 2 min 0.25 0.00
May 20, 01:29 7.08238° 171.38651° 8 min 0.25 0.01
270°
May 20, 01:21 7.08238° 171.38654° 2 min 0.25 0.05
270°
May 20, 01:19 7.08238° 171.38657° 8 min 0.25 0.05
281°
May 20, 01:11 7.08236° 171.38667° 2 min 0.26 0.08
283°
May 20, 01:09 7.08235° 171.38672° 8 min 0.26 0.02
335°
May 20, 01:01 7.08232° 171.38673° 2 min 0.26 0.03
270°
May 20, 00:59 7.08232° 171.38675° 8 min 0.26 0.03
13°
May 20, 00:51 7.08226° 171.38673° 2 min 0.25 0.03
270°
May 20, 00:49 7.08226° 171.38675° 8 min 0.26 0.04
211°
May 20, 00:41 7.08233° 171.38680° 2 min 0.26 0.08
317°
May 20, 00:39 7.08230° 171.38683° 8 min 0.26 0.08
339°
May 20, 00:31 7.08214° 171.38689° 2 min 0.26 0.10
May 20, 00:29 7.08208° 171.38689° 8 min 0.25 0.07
68°
May 20, 00:21 7.08203° 171.38675° 2 min 0.25 0.12
110°
May 20, 00:19 7.08205° 171.38669° 8 min 0.24 0.08
94°
May 20, 00:11 7.08206° 171.38652° 2 min 0.24 0.03
55°
May 20, 00:09 7.08205° 171.38651° 8 min 0.24 0.06
43°
May 20, 00:01 7.08195° 171.38641° 2 min 0.23 0.04
May 19, 23:59 7.08193° 171.38641° 8 min 0.23 0.05
35°
May 19, 23:51 7.08185° 171.38635° 2 min 0.22 0.08
90°
May 19, 23:49 7.08185° 171.38631° 8 min 0.22 0.05
84°
May 19, 23:41 7.08184° 171.38620° 1 min 0.21 0.07
54°
May 19, 23:39 7.08182° 171.38617° 8 min 0.21 0.01
270°
May 19, 23:31 7.08182° 171.38620° 2 min 0.21 0.00
May 19, 23:29 7.08182° 171.38620° 8 min 0.21 0.02
43°
May 19, 23:21 7.08178° 171.38617° 2 min 0.21 0.07
305°
May 19, 23:19 7.08176° 171.38620° 8 min 0.21 0.03
349°
May 19, 23:11 7.08169° 171.38622° 2 min 0.21 0.05
270°
May 19, 23:09 7.08169° 171.38625° 8 min 0.21 0.06
309°
May 19, 23:01 7.08160° 171.38635° 2 min 0.21 0.06
110°
May 19, 22:59 7.08161° 171.38632° 8 min 0.21 0.07
138°
May 19, 22:51 7.08173° 171.38622° 2 min 0.21 0.09
116°
May 19, 22:49 7.08175° 171.38617° 8 min 0.21 0.06
114°
May 19, 22:41 7.08180° 171.38605° 2 min 0.21 0.06
180°
May 19, 22:39 7.08184° 171.38605° 8 min 0.21 0.03
125°
May 19, 22:31 7.08188° 171.38599° 2 min 0.21 0.04
180°
May 19, 22:29 7.08190° 171.38599° 8 min 0.21 0.04
223°
May 19, 22:21 7.08197° 171.38605° 2 min 0.21 0.00
May 19, 22:19 7.08197° 171.38605° 8 min 0.21 0.01
54°
May 19, 22:11 7.08195° 171.38603° 2 min 0.21 0.08
104°
May 19, 22:09 7.08197° 171.38599° 8 min 0.21 0.08
72°
May 19, 22:01 7.08191° 171.38582° 2 min 0.20 0.06
May 19, 21:59 7.08188° 171.38582° 8 min 0.20 0.11
May 19, 21:51 7.08163° 171.38582° 2 min 0.19 0.12
May 19, 21:49 7.08157° 171.38582° 8 min 0.19 0.11
32°
May 19, 21:41 7.08135° 171.38568° 2 min 0.17 0.13
40°
May 19, 21:39 7.08130° 171.38564° 8 min 0.17 0.11
May 19, 21:31 7.08105° 171.38562° 2 min 0.16 0.13
320°
May 19, 21:29 7.08100° 171.38567° 8 min 0.16 0.14
292°
May 19, 21:21 7.08088° 171.38596° 2 min 0.17 0.16
270°
May 19, 21:19 7.08088° 171.38605° 8 min 0.17 0.14
272°
May 19, 21:11 7.08087° 171.38635° 2 min 0.19 0.11
270°
May 19, 21:09 7.08087° 171.38641° 8 min 0.19 0.11
254°
May 19, 21:01 7.08094° 171.38664° 2 min 0.20 0.15
247°
May 19, 20:59 7.08097° 171.38672° 8 min 0.21 0.10
267°
May 19, 20:51 7.08098° 171.38695° 2 min 0.22 0.03
270°
May 19, 20:49 7.08098° 171.38696° 8 min 0.22 0.05
203°
May 19, 20:41 7.08109° 171.38701° 2 min 0.23 0.08
256°
May 19, 20:39 7.08110° 171.38705° 8 min 0.23 0.08
240°
May 19, 20:31 7.08118° 171.38721° 2 min 0.24 0.04
180°
May 19, 20:29 7.08120° 171.38721° 8 min 0.24 0.04
137°
May 19, 20:21 7.08127° 171.38715° 2 min 0.24 0.15
113°
May 19, 20:19 7.08130° 171.38707° 8 min 0.24 0.16
90°
May 19, 20:11 7.08130° 171.38672° 2 min 0.22 0.17
71°
May 19, 20:09 7.08127° 171.38663° 8 min 0.21 0.09
81°
May 19, 20:01 7.08124° 171.38643° 2 min 0.20 0.02
180°
May 19, 19:59 7.08125° 171.38643° 8 min 0.20 0.05
270°
May 19, 19:51 7.08125° 171.38654° 2 min 0.21 0.14
278°
May 19, 19:49 7.08124° 171.38661° 8 min 0.21 0.04
247°
May 19, 19:41 7.08127° 171.38669° 2 min 0.22 0.06
250°
May 19, 19:39 7.08128° 171.38672° 28 min 0.22 0.04
198°
May 19, 19:11 7.08161° 171.38683° 2 min 0.23 0.07
125°
May 19, 19:09 7.08163° 171.38680° 8 min 0.23 0.04
180°
May 19, 19:01 7.08173° 171.38680° 2 min 0.24 0.14
180°
May 19, 18:59 7.08180° 171.38680° 8 min 0.24 0.01
May 19, 18:51 7.08178° 171.38680° 2 min 0.24 0.06
155°
May 19, 18:49 7.08182° 171.38678° 8 min 0.24 0.04
49°
May 19, 18:41 7.08176° 171.38672° 2 min 0.23 0.00
May 19, 18:39 7.08176° 171.38672° 8 min 0.23 0.07
142°
May 19, 18:31 7.08188° 171.38663° 2 min 0.23 0.10
164°
May 19, 18:29 7.08193° 171.38661° 8 min 0.24 0.07
150°
May 19, 18:21 7.08206° 171.38654° 2 min 0.24 0.04
180°
May 19, 18:19 7.08208° 171.38654° 8 min 0.24 0.02
125°
May 19, 18:11 7.08211° 171.38651° 2 min 0.24 0.06
109°
May 19, 18:09 7.08212° 171.38647° 8 min 0.24 0.04
125°
May 19, 18:01 7.08217° 171.38640° 2 min 0.24 0.02
180°
May 19, 17:59 7.08218° 171.38640° 8 min 0.24 0.04
125°
May 19, 17:51 7.08223° 171.38632° 2 min 0.24 0.03
90°
May 19, 17:49 7.08223° 171.38631° 8 min 0.24 0.05
73°
May 19, 17:41 7.08220° 171.38620° 2 min 0.23 0.08
104°
May 19, 17:39 7.08221° 171.38615° 8 min 0.23 0.04
83°
May 19, 17:31 7.08220° 171.38606° 2 min 0.22 0.00
May 19, 17:29 7.08220° 171.38606° 8 min 0.22 0.01
110°
May 19, 17:21 7.08221° 171.38603° 2 min 0.22 0.06
70°
May 19, 17:19 7.08220° 171.38600° 8 min 0.22 0.05
117°
May 19, 17:11 7.08226° 171.38589° 2 min 0.22 0.00
May 19, 17:09 7.08226° 171.38589° 8 min 0.22 0.04
180°
May 19, 17:01 7.08235° 171.38589° 2 min 0.23 0.08
103°
May 19, 16:59 7.08236° 171.38585° 8 min 0.22 0.10
99°
May 19, 16:51 7.08240° 171.38564° 2 min 0.22 0.09
115°
May 19, 16:49 7.08242° 171.38559° 8 min 0.22 0.10
98°
May 19, 16:41 7.08245° 171.38536° 2 min 0.21 0.12
110°
May 19, 16:39 7.08247° 171.38530° 8 min 0.21 0.08
101°
May 19, 16:31 7.08250° 171.38513° 2 min 0.21 0.14
90°
May 19, 16:29 7.08250° 171.38506° 8 min 0.21 0.10
93°
May 19, 16:21 7.08251° 171.38484° 2 min 0.20 0.06
155°
May 19, 16:19 7.08254° 171.38483° 8 min 0.20 0.07
67°
May 19, 16:11 7.08248° 171.38467° 2 min 0.20 0.08
90°
May 19, 16:09 7.08248° 171.38463° 8 min 0.20 0.10
82°
May 19, 16:01 7.08245° 171.38440° 2 min 0.19 0.14
106°
May 19, 15:59 7.08247° 171.38432° 8 min 0.19 0.01
May 19, 15:51 7.08244° 171.38432° 2 min 0.19 0.02
180°
May 19, 15:49 7.08245° 171.38432° 8 min 0.19 0.09
254°
May 19, 15:41 7.08250° 171.38451° 1 min 0.20 0.11
270°
May 19, 15:39 7.08250° 171.38457° 8 min 0.20 0.06
228°
May 19, 15:31 7.08260° 171.38467° 2 min 0.20 0.04
180°
May 19, 15:29 7.08262° 171.38467° 8 min 0.21 0.01
May 19, 15:21 7.08260° 171.38467° 2 min 0.20 0.06
205°
May 19, 15:19 7.08263° 171.38469° 8 min 0.21 0.04
235°
May 19, 15:11 7.08268° 171.38477° 2 min 0.21 0.03
270°
May 19, 15:09 7.08268° 171.38478° 8 min 0.21 0.07
270°
May 19, 15:01 7.08268° 171.38493° 2 min 0.21 0.02
180°
May 19, 14:59 7.08270° 171.38493° 8 min 0.22 0.06
77°
May 19, 14:51 7.08266° 171.38480° 2 min 0.21 0.11
90°
May 19, 14:49 7.08266° 171.38474° 8 min 0.21 0.08
69°
May 19, 14:41 7.08260° 171.38457° 2 min 0.20 0.03
54°
May 19, 14:39 7.08259° 171.38455° 8 min 0.20 0.08
31°
May 19, 14:31 7.08244° 171.38446° 2 min 0.19 0.08
19°
May 19, 14:29 7.08240° 171.38445° 8 min 0.19 0.07
61°
May 19, 14:21 7.08232° 171.38431° 2 min 0.18 0.12
70°
May 19, 14:19 7.08230° 171.38425° 8 min 0.18 0.10
87°
May 19, 14:11 7.08229° 171.38403° 2 min 0.18 0.12
62°
May 19, 14:09 7.08226° 171.38397° 8 min 0.18 0.07
68°
May 19, 14:01 7.08220° 171.38383° 2 min 0.17 0.00
May 19, 13:59 7.08220° 171.38383° 8 min 0.17 0.03
90°
May 19, 13:51 7.08220° 171.38377° 2 min 0.17 0.08
90°
May 19, 13:49 7.08220° 171.38373° 8 min 0.17 0.02
256°
May 19, 13:41 7.08221° 171.38377° 2 min 0.17 0.08
284°
May 19, 13:39 7.08220° 171.38382° 8 min 0.17 0.04
317°
May 19, 13:31 7.08214° 171.38388° 2 min 0.17 0.06
May 19, 13:29 7.08211° 171.38388° 8 min 0.17 0.08
305°
May 19, 13:21 7.08200° 171.38403° 2 min 0.16 0.10
305°
May 19, 13:19 7.08197° 171.38408° 8 min 0.16 0.12
290°
May 19, 13:11 7.08188° 171.38432° 2 min 0.16 0.14
278°
May 19, 13:09 7.08187° 171.38440° 8 min 0.16 0.18
301°
May 19, 13:01 7.08167° 171.38474° 2 min 0.15 0.19
301°
May 19, 12:59 7.08161° 171.38483° 8 min 0.15 0.24
310°
May 19, 12:51 7.08127° 171.38524° 2 min 0.15 0.24
333°
May 19, 12:49 7.08115° 171.38530° 8 min 0.15 0.22
308°
May 19, 12:41 7.08085° 171.38568° 2 min 0.15 0.24
317°
May 19, 12:39 7.08075° 171.38577° 8 min 0.15 0.19
308°
May 19, 12:31 7.08050° 171.38611° 2 min 0.16 0.18
295°
May 19, 12:29 7.08045° 171.38620° 8 min 0.17 0.11
303°
May 19, 12:21 7.08031° 171.38641° 2 min 0.18 0.13
305°
May 19, 12:19 7.08027° 171.38647° 8 min 0.18 0.09
316°
May 19, 12:11 7.08013° 171.38661° 2 min 0.18 0.13
335°
May 19, 12:09 7.08007° 171.38664° 8 min 0.19 0.11
299°
May 19, 12:01 7.07995° 171.38686° 2 min 0.20 0.16
277°
May 19, 11:59 7.07994° 171.38695° 8 min 0.20 0.12
270°
May 19, 11:51 7.07994° 171.38721° 2 min 0.22 0.09
295°
May 19, 11:49 7.07992° 171.38725° 8 min 0.22 0.07
262°
May 19, 11:41 7.07994° 171.38741° 1 min 0.23 0.08
137°
May 19, 11:39 7.07997° 171.38737° 8 min 0.23 0.02
215°
May 19, 11:31 7.08001° 171.38741° 2 min 0.23 0.06
180°
May 19, 11:29 7.08005° 171.38741° 8 min 0.23 0.05
287°
May 19, 11:21 7.08001° 171.38751° 2 min 0.24 0.06
335°
May 19, 11:19 7.07998° 171.38753° 8 min 0.24 0.05
275°
May 19, 11:11 7.07997° 171.38765° 2 min 0.24 0.08
223°
May 19, 11:09 7.08000° 171.38768° 8 min 0.25 0.08
117°
May 19, 11:01 7.08009° 171.38751° 2 min 0.24 0.00
May 19, 10:59 7.08009° 171.38751° 8 min 0.24 0.02
341°
May 19, 10:51 7.08005° 171.38753° 2 min 0.24 0.11
270°
May 19, 10:49 7.08005° 171.38759° 8 min 0.24 0.06
283°
May 19, 10:41 7.08001° 171.38773° 2 min 0.25 0.08
270°
May 19, 10:39 7.08001° 171.38777° 8 min 0.25 0.05
270°
May 19, 10:31 7.08001° 171.38789° 2 min 0.26 0.06
205°
May 19, 10:29 7.08005° 171.38791° 8 min 0.26 0.02
May 19, 10:21 7.08000° 171.38791° 2 min 0.26 0.00
May 19, 10:19 7.08000° 171.38791° 8 min 0.26 0.04
113°
May 19, 10:11 7.08003° 171.38783° 2 min 0.25 0.07
54°
May 19, 10:09 7.08001° 171.38780° 8 min 0.25 0.07
318°
May 19, 10:01 7.07990° 171.38791° 2 min 0.26 0.06
25°
May 19, 09:59 7.07986° 171.38789° 8 min 0.26 0.12
90°
May 19, 09:51 7.07986° 171.38762° 2 min 0.24 0.19
120°
May 19, 09:49 7.07992° 171.38753° 8 min 0.24 0.17
103°
May 19, 09:41 7.08000° 171.38715° 2 min 0.21 0.25
94°
May 19, 09:39 7.08001° 171.38701° 8 min 0.21 0.23
93°
May 19, 09:31 7.08003° 171.38651° 2 min 0.18 0.16
97°
May 19, 09:29 7.08005° 171.38641° 8 min 0.17 0.10
81°
May 19, 09:21 7.08001° 171.38620° 2 min 0.16 0.03
305°
May 19, 09:19 7.08000° 171.38622° 8 min 0.16 0.08
27°
May 19, 09:11 7.07985° 171.38614° 2 min 0.15 0.04
May 19, 09:09 7.07983° 171.38614° 8 min 0.15 0.05
243°
May 19, 09:01 7.07988° 171.38625° 2 min 0.16 0.03
270°
May 19, 08:59 7.07988° 171.38626° 8 min 0.16 0.06
231°
May 19, 08:51 7.07997° 171.38637° 2 min 0.17 0.11
227°
May 19, 08:49 7.08001° 171.38641° 8 min 0.17 0.10
248°
May 19, 08:41 7.08010° 171.38663° 2 min 0.18 0.12
250°
May 19, 08:39 7.08012° 171.38669° 8 min 0.19 0.11
255°
May 19, 08:31 7.08018° 171.38693° 2 min 0.20 0.03
234°
May 19, 08:29 7.08020° 171.38695° 8 min 0.20 0.07
235°
May 19, 08:21 7.08028° 171.38707° 2 min 0.21 0.11
209°
May 19, 08:19 7.08034° 171.38710° 8 min 0.22 0.11
217°
May 19, 08:11 7.08054° 171.38725° 2 min 0.23 0.14
215°
May 19, 08:09 7.08060° 171.38730° 8 min 0.23 0.08
219°
May 19, 08:01 7.08073° 171.38741° 2 min 0.24 0.05
215°
May 19, 07:59 7.08075° 171.38742° 8 min 0.24 0.00
180°
May 19, 07:51 7.08076° 171.38742° 2 min 0.24 0.05
144°
May 19, 07:49 7.08079° 171.38741° 8 min 0.24 0.04
189°
May 19, 07:41 7.08088° 171.38742° 1 min 0.24 0.03
90°
May 19, 07:39 7.08088° 171.38741° 8 min 0.24 0.04
113°
May 19, 07:31 7.08091° 171.38733° 2 min 0.24 0.03
90°
May 19, 07:29 7.08091° 171.38731° 8 min 0.24 0.02
180°
May 19, 07:21 7.08097° 171.38731° 2 min 0.24 0.06
180°
May 19, 07:19 7.08100° 171.38731° 8 min 0.24 0.03
347°
May 19, 07:11 7.08094° 171.38733° 2 min 0.24 0.09
296°
May 19, 07:09 7.08091° 171.38737° 8 min 0.24 0.06
257°
May 19, 07:01 7.08095° 171.38751° 2 min 0.25 0.05
270°
May 19, 06:59 7.08095° 171.38754° 8 min 0.25 0.07
249°
May 19, 06:51 7.08100° 171.38768° 2 min 0.26 0.06
205°
May 19, 06:49 7.08103° 171.38770° 8 min 0.26 0.05
243°
May 19, 06:41 7.08109° 171.38780° 2 min 0.27 0.05
270°
May 19, 06:39 7.08109° 171.38783° 8 min 0.27 0.01
270°
May 19, 06:31 7.08109° 171.38785° 2 min 0.27 0.00
May 19, 06:29 7.08109° 171.38785° 8 min 0.27 0.04
199°
May 19, 06:21 7.08117° 171.38788° 2 min 0.28 0.08
199°
May 19, 06:19 7.08121° 171.38789° 8 min 0.28 0.10
180°
May 19, 06:11 7.08143° 171.38789° 2 min 0.28 0.10
180°
May 19, 06:09 7.08148° 171.38789° 8 min 0.29 0.06
133°
May 19, 06:01 7.08157° 171.38780° 2 min 0.28 0.08
43°
May 19, 05:59 7.08154° 171.38777° 8 min 0.28 0.08
55°
May 19, 05:51 7.08143° 171.38762° 2 min 0.27 0.09
116°
May 19, 05:49 7.08145° 171.38757° 8 min 0.27 0.09
99°
May 19, 05:41 7.08148° 171.38737° 2 min 0.26 0.11
90°
May 19, 05:39 7.08148° 171.38731° 8 min 0.25 0.08
79°
May 19, 05:31 7.08145° 171.38715° 2 min 0.25 0.09
64°
May 19, 05:29 7.08143° 171.38710° 8 min 0.24 0.01
71°
May 19, 05:21 7.08142° 171.38707° 2 min 0.24 0.05
270°
May 19, 05:19 7.08142° 171.38710° 8 min 0.24 0.03
242°
May 19, 05:11 7.08145° 171.38716° 2 min 0.25 0.00
May 19, 05:09 7.08145° 171.38716° 8 min 0.25 0.01
251°
May 19, 05:01 7.08146° 171.38719° 2 min 0.25 0.04
180°
May 19, 04:59 7.08148° 171.38719° 8 min 0.25 0.08
153°
May 19, 04:51 7.08163° 171.38712° 2 min 0.25 0.04
180°
May 19, 04:49 7.08165° 171.38712° 8 min 0.25 0.03
270°
May 19, 04:41 7.08165° 171.38719° 2 min 0.25 0.00
May 19, 04:39 7.08165° 171.38719° 8 min 0.25 0.00
180°
May 19, 04:31 7.08167° 171.38719° 2 min 0.25 0.05
90°
May 19, 04:29 7.08167° 171.38716° 8 min 0.25 0.04
171°
May 19, 04:21 7.08176° 171.38715° 2 min 0.26 0.08
199°
May 19, 04:19 7.08180° 171.38716° 8 min 0.26 0.05
281°
May 19, 04:11 7.08178° 171.38727° 2 min 0.26 0.09
295°
May 19, 04:09 7.08176° 171.38731° 8 min 0.26 0.01
270°
May 19, 04:01 7.08176° 171.38733° 2 min 0.26 0.06
289°
May 19, 03:59 7.08175° 171.38736° 8 min 0.27 0.03
270°
May 19, 03:51 7.08175° 171.38742° 1 min 0.27 0.00
May 19, 03:49 7.08175° 171.38742° 8 min 0.27 0.00
180°
May 19, 03:41 7.08176° 171.38742° 2 min 0.27 0.03
270°
May 19, 03:39 7.08176° 171.38744° 8 min 0.27 0.04
310°
May 19, 03:31 7.08170° 171.38751° 2 min 0.27 0.03
270°
May 19, 03:29 7.08170° 171.38753° 8 min 0.27 0.03
180°
May 19, 03:21 7.08176° 171.38753° 1 min 0.27 0.03
90°
May 19, 03:19 7.08176° 171.38751° 8 min 0.27 0.05
157°
May 19, 03:11 7.08187° 171.38747° 2 min 0.27 0.00
May 19, 03:09 7.08187° 171.38747° 8 min 0.27 0.06
285°
May 19, 03:01 7.08184° 171.38759° 2 min 0.28 0.05
270°
May 19, 02:59 7.08184° 171.38762° 8 min 0.28 0.03
331°
May 19, 02:51 7.08178° 171.38765° 2 min 0.28 0.07
305°
May 19, 02:49 7.08176° 171.38768° 8 min 0.28 0.02
May 19, 02:41 7.08172° 171.38768° 2 min 0.28 0.00
May 19, 02:39 7.08172° 171.38768° 8 min 0.28 0.04
43°
May 19, 02:31 7.08165° 171.38762° 2 min 0.28 0.09
325°
May 19, 02:29 7.08161° 171.38765° 8 min 0.28 0.03
305°
May 19, 02:21 7.08158° 171.38770° 2 min 0.28 0.05
270°
May 19, 02:19 7.08158° 171.38773° 8 min 0.28 0.01
270°
May 19, 02:11 7.08158° 171.38774° 2 min 0.28 0.02
May 19, 02:09 7.08157° 171.38774° 8 min 0.28 0.03
331°
May 19, 02:01 7.08151° 171.38777° 2 min 0.28 0.02
May 19, 01:59 7.08150° 171.38777° 8 min 0.28 0.07
33°
May 19, 01:51 7.08137° 171.38768° 2 min 0.27 0.08
43°
May 19, 01:49 7.08133° 171.38765° 8 min 0.27 0.07
11°
May 19, 01:41 7.08117° 171.38762° 2 min 0.26 0.10
May 19, 01:39 7.08112° 171.38762° 8 min 0.26 0.04
97°
May 19, 01:31 7.08113° 171.38753° 2 min 0.26 0.09
116°
May 19, 01:29 7.08115° 171.38748° 8 min 0.25 0.09
130°
May 19, 01:21 7.08128° 171.38733° 2 min 0.25 0.08
161°
May 19, 01:19 7.08132° 171.38731° 8 min 0.25 0.05
155°
May 19, 01:11 7.08142° 171.38727° 2 min 0.25 0.06
251°
May 19, 01:09 7.08143° 171.38730° 8 min 0.25 0.03
196°
May 19, 01:01 7.08148° 171.38731° 2 min 0.25 0.06
180°
May 19, 00:59 7.08151° 171.38731° 8 min 0.26 0.05
148°
May 19, 00:51 7.08161° 171.38725° 2 min 0.26 0.07
125°
May 19, 00:49 7.08163° 171.38722° 8 min 0.25 0.14
115°
May 19, 00:41 7.08176° 171.38695° 2 min 0.25 0.16
90°
May 19, 00:39 7.08176° 171.38686° 8 min 0.24 0.10
81°
May 19, 00:31 7.08173° 171.38664° 2 min 0.23 0.00
May 19, 00:29 7.08173° 171.38664° 8 min 0.23 0.05
73°
May 19, 00:21 7.08170° 171.38654° 2 min 0.22 0.09
35°
May 19, 00:19 7.08165° 171.38651° 8 min 0.22 0.05
51°
May 19, 00:11 7.08158° 171.38641° 2 min 0.21 0.04
180°
May 19, 00:09 7.08160° 171.38641° 8 min 0.21 0.04
97°
May 19, 00:01 7.08161° 171.38632° 2 min 0.21 0.05
145°
May 18, 23:59 7.08163° 171.38631° 8 min 0.21 0.07
138°
May 18, 23:51 7.08175° 171.38620° 2 min 0.21 0.08
103°
May 18, 23:49 7.08176° 171.38615° 8 min 0.21 0.02
161°
May 18, 23:41 7.08180° 171.38614° 2 min 0.21 0.05
90°
May 18, 23:39 7.08180° 171.38611° 8 min 0.21 0.04
49°
May 18, 23:31 7.08175° 171.38605° 1 min 0.20 0.09
64°
May 18, 23:29 7.08173° 171.38600° 8 min 0.20 0.08
76°
May 18, 23:21 7.08169° 171.38583° 2 min 0.19 0.09
65°
May 18, 23:19 7.08167° 171.38579° 8 min 0.19 0.06
43°
May 18, 23:11 7.08157° 171.38570° 2 min 0.18 0.00
May 18, 23:09 7.08157° 171.38570° 8 min 0.18 0.04
293°
May 18, 23:01 7.08154° 171.38577° 2 min 0.18 0.04
May 18, 22:59 7.08151° 171.38577° 8 min 0.18 0.03
126°
May 18, 22:51 7.08155° 171.38573° 2 min 0.18 0.08
90°
May 18, 22:49 7.08155° 171.38568° 8 min 0.18 0.05
125°
May 18, 22:41 7.08161° 171.38559° 2 min 0.18 0.04
180°
May 18, 22:39 7.08163° 171.38559° 8 min 0.18 0.07
218°
May 18, 22:31 7.08175° 171.38568° 2 min 0.19 0.08
257°
May 18, 22:29 7.08176° 171.38573° 8 min 0.19 0.01
180°
May 18, 22:21 7.08178° 171.38573° 2 min 0.19 0.07
125°
May 18, 22:19 7.08180° 171.38570° 8 min 0.19 0.05
135°
May 18, 22:11 7.08188° 171.38562° 2 min 0.19 0.06
70°
May 18, 22:09 7.08187° 171.38559° 8 min 0.19 0.06
29°
May 18, 22:01 7.08176° 171.38553° 2 min 0.18 0.13
55°
May 18, 21:59 7.08172° 171.38547° 8 min 0.18 0.14
32°
May 18, 21:51 7.08145° 171.38530° 2 min 0.16 0.10
May 18, 21:49 7.08140° 171.38530° 8 min 0.16 0.09
347°
May 18, 21:41 7.08120° 171.38535° 2 min 0.15 0.10
344°
May 18, 21:39 7.08115° 171.38536° 8 min 0.15 0.10
319°
May 18, 21:31 7.08098° 171.38551° 2 min 0.15 0.06
335°
May 18, 21:29 7.08095° 171.38553° 8 min 0.15 0.15
324°
May 18, 21:21 7.08068° 171.38573° 2 min 0.15 0.16
317°
May 18, 21:19 7.08061° 171.38579° 8 min 0.15 0.17
301°
May 18, 21:11 7.08042° 171.38611° 2 min 0.16 0.19
301°
May 18, 21:09 7.08037° 171.38620° 8 min 0.17 0.10
296°
May 18, 21:01 7.08027° 171.38640° 2 min 0.17 0.06
335°
May 18, 20:59 7.08024° 171.38641° 8 min 0.17 0.03
305°
May 18, 20:51 7.08020° 171.38647° 2 min 0.18 0.06
290°
May 18, 20:49 7.08018° 171.38651° 8 min 0.18 0.12
244°
May 18, 20:41 7.08030° 171.38675° 2 min 0.20 0.16
263°
May 18, 20:39 7.08031° 171.38684° 8 min 0.20 0.12
252°
May 18, 20:31 7.08040° 171.38710° 2 min 0.22 0.12
250°
May 18, 20:29 7.08042° 171.38716° 8 min 0.22 0.06
235°
May 18, 20:21 7.08050° 171.38727° 2 min 0.23 0.05
270°
May 18, 20:19 7.08050° 171.38730° 8 min 0.23 0.05
180°
May 18, 20:11 7.08061° 171.38730° 2 min 0.23 0.08
137°
May 18, 20:09 7.08065° 171.38727° 8 min 0.23 0.06
174°
May 18, 20:01 7.08079° 171.38725° 2 min 0.23 0.08
137°
May 18, 19:59 7.08082° 171.38722° 8 min 0.23 0.06
231°
May 18, 19:51 7.08090° 171.38733° 2 min 0.24 0.09
295°
May 18, 19:49 7.08088° 171.38737° 8 min 0.24 0.10
225°
May 18, 19:41 7.08103° 171.38753° 1 min 0.25 0.07
205°
May 18, 19:39 7.08106° 171.38754° 8 min 0.26 0.11
227°
May 18, 19:31 7.08124° 171.38773° 2 min 0.27 0.06
205°
May 18, 19:29 7.08127° 171.38774° 8 min 0.27 0.05
197°
May 18, 19:21 7.08137° 171.38777° 2 min 0.28 0.10
180°
May 18, 19:19 7.08142° 171.38777° 8 min 0.28 0.03
205°
May 18, 19:11 7.08148° 171.38780° 2 min 0.28 0.07
235°
May 18, 19:09 7.08150° 171.38783° 8 min 0.28 0.08
180°
May 18, 19:01 7.08169° 171.38783° 2 min 0.29 0.06
180°
May 18, 18:59 7.08172° 171.38783° 8 min 0.29 0.06
153°
May 18, 18:51 7.08184° 171.38777° 2 min 0.29 0.06
205°
May 18, 18:49 7.08187° 171.38779° 8 min 0.29 0.06
201°
May 18, 18:41 7.08199° 171.38783° 2 min 0.30 0.06
180°
May 18, 18:39 7.08202° 171.38783° 8 min 0.30 0.04
247°
May 18, 18:31 7.08205° 171.38791° 2 min 0.30 0.05
270°
May 18, 18:29 7.08205° 171.38794° 8 min 0.30 0.04
190°
May 18, 18:21 7.08214° 171.38795° 2 min 0.31 0.06
180°
May 18, 18:19 7.08217° 171.38795° 8 min 0.31 0.05
155°
May 18, 18:11 7.08227° 171.38791° 2 min 0.31 0.05
90°
May 18, 18:09 7.08227° 171.38788° 8 min 0.31 0.03
90°
May 18, 18:01 7.08227° 171.38780° 2 min 0.30 0.03
54°
May 18, 17:59 7.08226° 171.38779° 8 min 0.30 0.05
309°
May 18, 17:51 7.08218° 171.38788° 2 min 0.31 0.08
223°
May 18, 17:49 7.08221° 171.38791° 8 min 0.31 0.04
211°
May 18, 17:41 7.08229° 171.38795° 2 min 0.31 0.10
126°
May 18, 17:39 7.08232° 171.38791° 8 min 0.31 0.05
79°
May 18, 17:31 7.08230° 171.38780° 2 min 0.31 0.06
70°
May 18, 17:29 7.08229° 171.38777° 8 min 0.30 0.06
105°
May 18, 17:21 7.08232° 171.38765° 2 min 0.30 0.06
109°
May 18, 17:19 7.08233° 171.38762° 8 min 0.30 0.05
126°
May 18, 17:11 7.08240° 171.38753° 2 min 0.30 0.04
180°
May 18, 17:09 7.08242° 171.38753° 8 min 0.30 0.04
90°
May 18, 17:01 7.08242° 171.38744° 2 min 0.29 0.05
90°
May 18, 16:59 7.08242° 171.38741° 8 min 0.29 0.03
25°
May 18, 16:51 7.08235° 171.38737° 2 min 0.29 0.13
320°
May 18, 16:49 7.08230° 171.38742° 8 min 0.29 0.09
305°
May 18, 16:41 7.08218° 171.38759° 2 min 0.29 0.06
290°
May 18, 16:39 7.08217° 171.38762° 8 min 0.29 0.05
319°
May 18, 16:31 7.08208° 171.38770° 2 min 0.29 0.04
180°
May 18, 16:29 7.08211° 171.38770° 8 min 0.29 0.01
270°
May 18, 16:21 7.08211° 171.38773° 2 min 0.30 0.08
341°
May 18, 16:19 7.08206° 171.38774° 8 min 0.29 0.02
25°
May 18, 16:11 7.08203° 171.38773° 2 min 0.29 0.05
90°
May 18, 16:09 7.08203° 171.38770° 8 min 0.29 0.03
62°
May 18, 16:01 7.08200° 171.38763° 2 min 0.29 0.03
54°
May 18, 15:59 7.08199° 171.38762° 8 min 0.29 0.04
31°
May 18, 15:51 7.08191° 171.38757° 2 min 0.28 0.06
70°
May 18, 15:49 7.08190° 171.38754° 8 min 0.28 0.02
137°
May 18, 15:41 7.08193° 171.38751° 2 min 0.28 0.06
205°
May 18, 15:39 7.08197° 171.38753° 8 min 0.28 0.05
270°
May 18, 15:31 7.08197° 171.38763° 2 min 0.29 0.03
306°
May 18, 15:29 7.08195° 171.38765° 8 min 0.29 0.03
262°
May 18, 15:21 7.08197° 171.38773° 1 min 0.29 0.05
216°
May 18, 15:19 7.08199° 171.38774° 8 min 0.29 0.03
242°
May 18, 15:11 7.08202° 171.38780° 2 min 0.30 0.04
May 18, 15:09 7.08200° 171.38780° 8 min 0.30 0.03
270°
May 18, 15:01 7.08200° 171.38788° 2 min 0.30 0.02
May 18, 14:59 7.08199° 171.38788° 8 min 0.30 0.02
223°
May 18, 14:51 7.08202° 171.38791° 2 min 0.30 0.09
295°
May 18, 14:49 7.08200° 171.38795° 8 min 0.30 0.03
313°
May 18, 14:41 7.08195° 171.38800° 2 min 0.30 0.06
180°
May 18, 14:39 7.08199° 171.38800° 8 min 0.31 0.05
245°
May 18, 14:31 7.08203° 171.38809° 2 min 0.31 0.05
270°
May 18, 14:29 7.08203° 171.38812° 8 min 0.31 0.04
300°
May 18, 14:21 7.08199° 171.38820° 2 min 0.32 0.04
May 18, 14:19 7.08197° 171.38820° 8 min 0.31 0.02
115°
May 18, 14:11 7.08199° 171.38815° 2 min 0.31 0.04
May 18, 14:09 7.08197° 171.38815° 8 min 0.31 0.06
21°
May 18, 14:01 7.08185° 171.38811° 2 min 0.31 0.06
25°
May 18, 13:59 7.08182° 171.38809° 8 min 0.30 0.05
14°
May 18, 13:51 7.08170° 171.38806° 2 min 0.30 0.02
May 18, 13:49 7.08169° 171.38806° 8 min 0.30 0.05
96°
May 18, 13:41 7.08170° 171.38795° 2 min 0.29 0.03
90°
May 18, 13:39 7.08170° 171.38794° 8 min 0.29 0.00
May 18, 13:31 7.08170° 171.38794° 2 min 0.29 0.02
May 18, 13:29 7.08169° 171.38794° 8 min 0.29 0.02
55°
May 18, 13:21 7.08167° 171.38791° 2 min 0.29 0.03
90°
May 18, 13:19 7.08167° 171.38789° 8 min 0.29 0.04
10°
May 18, 13:11 7.08158° 171.38788° 2 min 0.29 0.00
May 18, 13:09 7.08158° 171.38788° 8 min 0.29 0.03
349°
May 18, 13:01 7.08150° 171.38789° 2 min 0.29 0.08
19°
May 18, 12:59 7.08146° 171.38788° 8 min 0.28 0.05
50°
May 18, 12:51 7.08139° 171.38779° 2 min 0.28 0.05
36°
May 18, 12:49 7.08137° 171.38777° 8 min 0.28 0.04
90°
May 18, 12:41 7.08137° 171.38768° 2 min 0.27 0.10
54°
May 18, 12:39 7.08133° 171.38763° 8 min 0.27 0.03
40°
May 18, 12:31 7.08128° 171.38759° 2 min 0.26 0.03
54°
May 18, 12:29 7.08127° 171.38757° 8 min 0.26 0.04
132°
May 18, 12:21 7.08132° 171.38751° 2 min 0.26 0.00
May 18, 12:19 7.08132° 171.38751° 8 min 0.26 0.02
215°
May 18, 12:11 7.08137° 171.38754° 2 min 0.26 0.07
235°
May 18, 12:09 7.08139° 171.38757° 8 min 0.27 0.05
270°
May 18, 12:01 7.08139° 171.38768° 2 min 0.27 0.11
270°
May 18, 11:59 7.08139° 171.38774° 8 min 0.27 0.04
283°
May 18, 11:51 7.08137° 171.38783° 2 min 0.28 0.06
70°
May 18, 11:49 7.08135° 171.38780° 8 min 0.28 0.01
110°
May 18, 11:41 7.08137° 171.38777° 2 min 0.28 0.08
76°
May 18, 11:39 7.08135° 171.38773° 8 min 0.27 0.05
325°
May 18, 11:31 7.08127° 171.38779° 2 min 0.27 0.08
270°
May 18, 11:29 7.08127° 171.38783° 8 min 0.28 0.01
234°
May 18, 11:21 7.08128° 171.38785° 2 min 0.28 0.06
290°
May 18, 11:19 7.08127° 171.38788° 8 min 0.28 0.02
90°
May 18, 11:11 7.08127° 171.38783° 2 min 0.28 0.02
180°
May 18, 11:09 7.08128° 171.38783° 8 min 0.28 0.02
180°
May 18, 11:01 7.08133° 171.38783° 2 min 0.28 0.06
180°
May 18, 10:59 7.08137° 171.38783° 8 min 0.28 0.02
180°
May 18, 10:51 7.08142° 171.38783° 2 min 0.28 0.00
May 18, 10:49 7.08142° 171.38783° 8 min 0.28 0.01
May 18, 10:41 7.08140° 171.38783° 2 min 0.28 0.02
May 18, 10:39 7.08139° 171.38783° 8 min 0.28 0.04
325°
May 18, 10:31 7.08132° 171.38788° 2 min 0.28 0.00
May 18, 10:29 7.08132° 171.38788° 8 min 0.28 0.03
290°
May 18, 10:21 7.08130° 171.38794° 2 min 0.28 0.03
270°
May 18, 10:19 7.08130° 171.38795° 8 min 0.28 0.03
55°
May 18, 10:11 7.08127° 171.38791° 2 min 0.28 0.00
May 18, 10:09 7.08127° 171.38791° 8 min 0.28 0.01
35°
May 18, 10:01 7.08125° 171.38789° 2 min 0.28 0.00
May 18, 09:59 7.08125° 171.38789° 8 min 0.28 0.03
242°
May 18, 09:51 7.08128° 171.38795° 2 min 0.28 0.05
270°
May 18, 09:49 7.08128° 171.38799° 8 min 0.28 0.04
158°
May 18, 09:41 7.08135° 171.38795° 2 min 0.28 0.10
125°
May 18, 09:39 7.08139° 171.38791° 8 min 0.28 0.02
256°
May 18, 09:31 7.08140° 171.38795° 2 min 0.29 0.05
270°
May 18, 09:29 7.08140° 171.38799° 8 min 0.29 0.01
270°
May 18, 09:21 7.08140° 171.38802° 2 min 0.29 0.08
317°
May 18, 09:19 7.08137° 171.38805° 8 min 0.29 0.03
347°
May 18, 09:11 7.08130° 171.38806° 2 min 0.29 0.05
36°
May 18, 09:09 7.08128° 171.38805° 8 min 0.29 0.01
180°
May 18, 09:01 7.08130° 171.38805° 2 min 0.29 0.00
May 18, 08:59 7.08130° 171.38805° 8 min 0.29 0.03
193°
May 18, 08:51 7.08137° 171.38806° 2 min 0.29 0.00
May 18, 08:49 7.08137° 171.38806° 8 min 0.29 0.03
280°
May 18, 08:41 7.08135° 171.38812° 2 min 0.29 0.06
May 18, 08:39 7.08132° 171.38812° 8 min 0.29 0.04
329°
May 18, 08:31 7.08125° 171.38817° 2 min 0.29 0.09
325°
May 18, 08:29 7.08120° 171.38820° 8 min 0.29 0.04
202°
May 18, 08:21 7.08128° 171.38823° 2 min 0.30 0.05
144°
May 18, 08:19 7.08130° 171.38821° 8 min 0.30 0.05
126°
May 18, 08:11 7.08137° 171.38812° 2 min 0.29 0.06
25°
May 18, 08:09 7.08133° 171.38811° 8 min 0.29 0.03
118°
May 18, 08:01 7.08137° 171.38805° 2 min 0.29 0.02
May 18, 07:59 7.08135° 171.38805° 8 min 0.29 0.02
335°
May 18, 07:51 7.08132° 171.38806° 2 min 0.29 0.07
306°
May 18, 07:49 7.08130° 171.38809° 8 min 0.29 0.02
223°
May 18, 07:41 7.08133° 171.38812° 2 min 0.29 0.07
235°
May 18, 07:39 7.08135° 171.38815° 8 min 0.30 0.06
161°
May 18, 07:31 7.08148° 171.38811° 2 min 0.30 0.10
125°
May 18, 07:29 7.08151° 171.38806° 8 min 0.29 0.09
141°
May 18, 07:21 7.08167° 171.38794° 2 min 0.29 0.05
216°
May 18, 07:19 7.08169° 171.38795° 8 min 0.29 0.03
260°
May 18, 07:11 7.08170° 171.38802° 2 min 0.30 0.00
May 18, 07:09 7.08170° 171.38802° 8 min 0.30 0.05
270°
May 18, 07:01 7.08170° 171.38812° 2 min 0.30 0.04
180°
May 18, 06:59 7.08172° 171.38812° 8 min 0.30 0.07
180°
May 18, 06:51 7.08188° 171.38812° 2 min 0.31 0.13
180°
May 18, 06:49 7.08195° 171.38812° 7 min 0.31 0.05
148°
May 18, 06:41 7.08205° 171.38806° 2 min 0.31 0.04
May 18, 06:39 7.08203° 171.38806° 7 min 0.31 0.02
223°
May 18, 06:31 7.08206° 171.38809° 2 min 0.31 0.00
May 18, 06:29 7.08206° 171.38809° 7 min 0.31 0.02
215°
May 18, 06:21 7.08211° 171.38812° 2 min 0.32 0.06
251°
May 18, 06:19 7.08212° 171.38815° 8 min 0.32 0.02
126°
May 18, 06:11 7.08214° 171.38812° 2 min 0.32 0.02
180°
May 18, 06:09 7.08215° 171.38812° 7 min 0.32 0.03
234°
May 18, 06:01 7.08218° 171.38817° 2 min 0.32 0.04
180°
May 18, 05:59 7.08220° 171.38817° 7 min 0.32 0.03
242°
May 18, 05:51 7.08223° 171.38823° 2 min 0.32 0.04
180°
May 18, 05:49 7.08226° 171.38823° 8 min 0.33 0.02
155°
May 18, 05:41 7.08229° 171.38821° 2 min 0.33 0.03
270°
May 18, 05:39 7.08229° 171.38823° 7 min 0.33 0.02
256°
May 18, 05:31 7.08230° 171.38828° 2 min 0.33 0.08
90°
May 18, 05:29 7.08230° 171.38823° 7 min 0.33 0.06
100°
May 18, 05:21 7.08232° 171.38811° 2 min 0.32 0.03
90°
May 18, 05:19 7.08232° 171.38809° 8 min 0.32 0.06
107°
May 18, 05:11 7.08236° 171.38795° 2 min 0.32 0.03
90°
May 18, 05:09 7.08236° 171.38794° 7 min 0.31 0.01
90°
May 18, 05:01 7.08236° 171.38791° 2 min 0.31 0.05
145°
May 18, 04:59 7.08238° 171.38789° 7 min 0.31 0.02
104°
May 18, 04:51 7.08240° 171.38785° 2 min 0.31 0.08
180°
May 18, 04:49 7.08244° 171.38785° 8 min 0.31 0.03
169°
May 18, 04:41 7.08251° 171.38783° 2 min 0.31 0.06
180°
May 18, 04:39 7.08254° 171.38783° 7 min 0.32 0.00
May 18, 04:31 7.08253° 171.38783° 2 min 0.32 0.04
May 18, 04:29 7.08251° 171.38783° 7 min 0.31 0.00
May 18, 04:21 7.08251° 171.38783° 2 min 0.31 0.02
May 18, 04:19 7.08250° 171.38783° 8 min 0.31 0.00
May 18, 04:11 7.08250° 171.38783° 2 min 0.31 0.05
90°
May 18, 04:09 7.08250° 171.38780° 7 min 0.31 0.02
137°
May 18, 04:01 7.08253° 171.38777° 2 min 0.31 0.08
137°
May 18, 03:59 7.08257° 171.38774° 7 min 0.31 0.02
155°
May 18, 03:51 7.08260° 171.38773° 2 min 0.31 0.03
306°
May 18, 03:49 7.08259° 171.38774° 8 min 0.31 0.07
286°
May 18, 03:41 7.08254° 171.38789° 2 min 0.32 0.11
280°
May 18, 03:39 7.08253° 171.38795° 7 min 0.32 0.05
281°
May 18, 03:31 7.08251° 171.38806° 1 min 0.33 0.06
May 18, 03:29 7.08248° 171.38806° 8 min 0.32 0.07
258°
May 18, 03:21 7.08251° 171.38821° 2 min 0.33 0.06
May 18, 03:19 7.08248° 171.38821° 8 min 0.33 0.05
270°
May 18, 03:11 7.08248° 171.38832° 2 min 0.34 0.00
May 18, 03:09 7.08248° 171.38832° 8 min 0.34 0.03
80°
May 18, 03:01 7.08247° 171.38826° 2 min 0.33 0.07
55°
May 18, 02:59 7.08245° 171.38823° 8 min 0.33 0.04
325°
May 18, 02:51 7.08238° 171.38828° 2 min 0.33 0.04
May 18, 02:49 7.08236° 171.38828° 8 min 0.33 0.04
43°
May 18, 02:41 7.08230° 171.38821° 2 min 0.33 0.09
115°
May 18, 02:39 7.08232° 171.38817° 8 min 0.32 0.11
132°
May 18, 02:31 7.08248° 171.38799° 2 min 0.32 0.09
115°
May 18, 02:29 7.08250° 171.38794° 8 min 0.32 0.04
35°
May 18, 02:21 7.08244° 171.38789° 2 min 0.32 0.08
May 18, 02:19 7.08240° 171.38789° 8 min 0.31 0.08
May 18, 02:11 7.08221° 171.38789° 2 min 0.31 0.03
306°
May 18, 02:09 7.08220° 171.38791° 8 min 0.31 0.08
24°
May 18, 02:01 7.08203° 171.38783° 2 min 0.30 0.06
May 18, 01:59 7.08200° 171.38783° 8 min 0.30 0.05
May 18, 01:51 7.08188° 171.38783° 2 min 0.29 0.06
May 18, 01:49 7.08185° 171.38783° 8 min 0.29 0.04
May 18, 01:41 7.08175° 171.38783° 2 min 0.29 0.08
43°
May 18, 01:39 7.08172° 171.38780° 8 min 0.29 0.05
May 18, 01:31 7.08161° 171.38780° 2 min 0.28 0.00
May 18, 01:29 7.08161° 171.38780° 8 min 0.28 0.02
19°
May 18, 01:21 7.08157° 171.38779° 2 min 0.28 0.04
May 18, 01:19 7.08155° 171.38779° 8 min 0.28 0.04
10°
May 18, 01:11 7.08146° 171.38777° 2 min 0.28 0.02
May 18, 01:09 7.08145° 171.38777° 8 min 0.28 0.09
May 18, 01:01 7.08125° 171.38777° 2 min 0.27 0.14
349°
May 18, 00:59 7.08117° 171.38779° 8 min 0.27 0.11
349°
May 18, 00:51 7.08094° 171.38783° 2 min 0.27 0.10
344°
May 18, 00:49 7.08088° 171.38785° 8 min 0.27 0.07
322°
May 18, 00:41 7.08076° 171.38794° 2 min 0.27 0.03
306°
May 18, 00:39 7.08075° 171.38795° 8 min 0.27 0.02
305°
May 18, 00:31 7.08073° 171.38799° 2 min 0.27 0.04
180°
May 18, 00:29 7.08075° 171.38799° 8 min 0.27 0.03
40°
May 18, 00:21 7.08070° 171.38794° 2 min 0.27 0.04
May 18, 00:19 7.08068° 171.38794° 8 min 0.27 0.06
301°
May 18, 00:11 7.08061° 171.38805° 2 min 0.27 0.06
335°
May 18, 00:09 7.08058° 171.38806° 8 min 0.27 0.02
325°
May 18, 00:01 7.08054° 171.38809° 2 min 0.28 0.07
55°
May 17, 23:59 7.08052° 171.38806° 8 min 0.27 0.11
74°
May 17, 23:51 7.08045° 171.38783° 2 min 0.26 0.21
63°
May 17, 23:49 7.08040° 171.38773° 8 min 0.25 0.23
65°
May 17, 23:41 7.08018° 171.38725° 1 min 0.22 0.33
58°
May 17, 23:39 7.08009° 171.38710° 8 min 0.21 0.34
51°
May 17, 23:31 7.07962° 171.38651° 2 min 0.17 0.33
49°
May 17, 23:29 7.07950° 171.38637° 8 min 0.16 0.26
44°
May 17, 23:21 7.07908° 171.38596° 2 min 0.14 0.17
39°
May 17, 23:19 7.07900° 171.38589° 8 min 0.14 0.25
42°
May 17, 23:11 7.07860° 171.38553° 2 min 0.12 0.17
39°
May 17, 23:09 7.07852° 171.38547° 8 min 0.12 0.16
67°
May 17, 23:01 7.07838° 171.38513° 2 min 0.11 0.14
90°
May 17, 22:59 7.07838° 171.38506° 8 min 0.10 0.07
78°
May 17, 22:51 7.07835° 171.38490° 2 min 0.10 0.06
25°
May 17, 22:49 7.07832° 171.38489° 8 min 0.10 0.08
266°
May 17, 22:41 7.07833° 171.38506° 2 min 0.11 0.05
270°
May 17, 22:39 7.07833° 171.38509° 8 min 0.11 0.10
279°
May 17, 22:31 7.07830° 171.38530° 2 min 0.12 0.10
305°
May 17, 22:29 7.07826° 171.38535° 8 min 0.12 0.05
292°
May 17, 22:21 7.07822° 171.38545° 2 min 0.13 0.02
180°
May 17, 22:19 7.07823° 171.38545° 8 min 0.13 0.00
May 17, 22:11 7.07823° 171.38545° 2 min 0.13 0.08
43°
May 17, 22:09 7.07820° 171.38542° 8 min 0.13 0.13
67°
May 17, 22:01 7.07808° 171.38515° 2 min 0.12 0.09
116°
May 17, 21:59 7.07810° 171.38510° 8 min 0.12 0.08
104°
May 17, 21:51 7.07815° 171.38493° 2 min 0.11 0.06
70°
May 17, 21:49 7.07814° 171.38490° 8 min 0.11 0.05
63°
May 17, 21:41 7.07808° 171.38480° 2 min 0.10 0.03
90°
May 17, 21:39 7.07808° 171.38478° 8 min 0.10 0.02
116°
May 17, 21:31 7.07810° 171.38474° 2 min 0.10 0.06
180°
May 17, 21:29 7.07814° 171.38474° 8 min 0.10 0.04
145°
May 17, 21:21 7.07820° 171.38469° 2 min 0.09 0.03
90°
May 17, 21:19 7.07820° 171.38467° 8 min 0.09 0.06
105°
May 17, 21:11 7.07823° 171.38455° 2 min 0.09 0.00
May 17, 21:09 7.07823° 171.38455° 8 min 0.09 0.09
148°
May 17, 21:01 7.07840° 171.38445° 2 min 0.08 0.08
180°
May 17, 20:59 7.07845° 171.38445° 8 min 0.07 0.16
216°
May 17, 20:51 7.07874° 171.38466° 2 min 0.07 0.22
239°
May 17, 20:49 7.07880° 171.38477° 8 min 0.08 0.14
246°
May 17, 20:41 7.07893° 171.38506° 2 min 0.09 0.07
235°
May 17, 20:39 7.07895° 171.38509° 8 min 0.09 0.13
218°
May 17, 20:31 7.07919° 171.38527° 2 min 0.10 0.16
211°
May 17, 20:29 7.07926° 171.38531° 8 min 0.10 0.12
193°
May 17, 20:21 7.07952° 171.38538° 2 min 0.11 0.06
180°
May 17, 20:19 7.07955° 171.38538° 8 min 0.11 0.01
35°
May 17, 20:11 7.07953° 171.38536° 2 min 0.10 0.08
90°
May 17, 20:09 7.07953° 171.38531° 8 min 0.10 0.10
135°
May 17, 20:01 7.07968° 171.38516° 2 min 0.09 0.10
164°
May 17, 19:59 7.07973° 171.38515° 8 min 0.09 0.04
180°
May 17, 19:51 7.07982° 171.38515° 2 min 0.10 0.00
May 17, 19:49 7.07982° 171.38515° 8 min 0.10 0.09
258°
May 17, 19:41 7.07986° 171.38535° 2 min 0.11 0.12
242°
May 17, 19:39 7.07990° 171.38541° 8 min 0.11 0.14
233°
May 17, 19:31 7.08009° 171.38567° 2 min 0.13 0.14
270°
May 17, 19:29 7.08009° 171.38574° 8 min 0.13 0.14
252°
May 17, 19:21 7.08018° 171.38605° 1 min 0.15 0.11
260°
May 17, 19:19 7.08020° 171.38611° 8 min 0.16 0.16
270°
May 17, 19:11 7.08020° 171.38646° 2 min 0.18 0.21
248°
May 17, 19:09 7.08024° 171.38657° 8 min 0.18 0.17
260°
May 17, 19:01 7.08030° 171.38695° 2 min 0.21 0.12
242°
May 17, 18:59 7.08034° 171.38701° 8 min 0.21 0.09
207°
May 17, 18:51 7.08052° 171.38710° 2 min 0.22 0.05
215°
May 17, 18:49 7.08054° 171.38712° 8 min 0.22 0.09
230°
May 17, 18:41 7.08067° 171.38727° 2 min 0.23 0.13
220°
May 17, 18:39 7.08072° 171.38731° 8 min 0.23 0.13
217°
May 17, 18:31 7.08095° 171.38748° 2 min 0.25 0.13
220°
May 17, 18:29 7.08100° 171.38753° 8 min 0.25 0.10
204°
May 17, 18:21 7.08120° 171.38762° 2 min 0.26 0.06
205°
May 17, 18:19 7.08124° 171.38763° 8 min 0.26 0.08
211°
May 17, 18:11 7.08139° 171.38773° 2 min 0.27 0.08
256°
May 17, 18:09 7.08140° 171.38777° 8 min 0.28 0.07
186°
May 17, 18:01 7.08155° 171.38779° 2 min 0.28 0.06
155°
May 17, 17:59 7.08158° 171.38777° 8 min 0.28 0.05
180°
May 17, 17:51 7.08170° 171.38777° 2 min 0.28 0.10
125°
May 17, 17:49 7.08173° 171.38773° 8 min 0.28 0.08
147°
May 17, 17:41 7.08187° 171.38763° 2 min 0.28 0.00
May 17, 17:39 7.08187° 171.38763° 8 min 0.28 0.06
187°
May 17, 17:31 7.08200° 171.38765° 2 min 0.29 0.06
180°
May 17, 17:29 7.08203° 171.38765° 8 min 0.29 0.03
209°
May 17, 17:21 7.08208° 171.38768° 2 min 0.29 0.08
137°
May 17, 17:19 7.08212° 171.38765° 8 min 0.29 0.01
180°
May 17, 17:11 7.08215° 171.38765° 2 min 0.29 0.02
May 17, 17:09 7.08214° 171.38765° 8 min 0.29 0.02
317°
May 17, 17:01 7.08211° 171.38768° 2 min 0.29 0.00
May 17, 16:59 7.08211° 171.38768° 8 min 0.29 0.02
270°
May 17, 16:51 7.08211° 171.38773° 2 min 0.30 0.03
270°
May 17, 16:49 7.08211° 171.38774° 8 min 0.30 0.02
215°
May 17, 16:41 7.08215° 171.38777° 2 min 0.30 0.02
May 17, 16:39 7.08214° 171.38777° 8 min 0.30 0.00
May 17, 16:31 7.08214° 171.38777° 2 min 0.30 0.02
180°
May 17, 16:29 7.08215° 171.38777° 8 min 0.30 0.04
113°
May 17, 16:21 7.08218° 171.38770° 2 min 0.30 0.05
144°
May 17, 16:19 7.08220° 171.38768° 8 min 0.30 0.03
118°
May 17, 16:11 7.08223° 171.38762° 2 min 0.29 0.00
May 17, 16:09 7.08223° 171.38762° 8 min 0.29 0.04
125°
May 17, 16:01 7.08229° 171.38754° 2 min 0.29 0.02
180°
May 17, 15:59 7.08230° 171.38754° 8 min 0.29 0.03
164°
May 17, 15:51 7.08235° 171.38753° 2 min 0.29 0.03
125°
May 17, 15:49 7.08236° 171.38751° 8 min 0.29 0.06
73°
May 17, 15:41 7.08232° 171.38737° 2 min 0.29 0.04
May 17, 15:39 7.08230° 171.38737° 8 min 0.29 0.01
54°
May 17, 15:31 7.08229° 171.38736° 2 min 0.28 0.05
90°
May 17, 15:29 7.08229° 171.38733° 7 min 0.28 0.02
155°
May 17, 15:21 7.08232° 171.38731° 2 min 0.28 0.02
180°
May 17, 15:19 7.08233° 171.38731° 8 min 0.28 0.03
298°
May 17, 15:11 7.08230° 171.38737° 2 min 0.29 0.02
May 17, 15:09 7.08229° 171.38737° 8 min 0.28 0.07
289°
May 17, 15:01 7.08223° 171.38753° 2 min 0.29 0.09
295°
May 17, 14:59 7.08221° 171.38757° 8 min 0.29 0.05
337°
May 17, 14:51 7.08211° 171.38762° 2 min 0.29 0.10
344°
May 17, 14:49 7.08205° 171.38763° 8 min 0.29 0.06
21°
May 17, 14:41 7.08193° 171.38759° 2 min 0.28 0.05
35°
May 17, 14:39 7.08191° 171.38757° 8 min 0.28 0.06
85°
May 17, 14:31 7.08190° 171.38744° 2 min 0.27 0.05
90°
May 17, 14:29 7.08190° 171.38741° 8 min 0.27 0.04
110°
May 17, 14:21 7.08193° 171.38731° 2 min 0.27 0.04
180°
May 17, 14:19 7.08195° 171.38731° 8 min 0.27 0.03
125°
May 17, 14:11 7.08200° 171.38725° 2 min 0.27 0.02
May 17, 14:09 7.08199° 171.38725° 8 min 0.27 0.03
126°
May 17, 14:01 7.08202° 171.38721° 2 min 0.27 0.03
90°
May 17, 13:59 7.08202° 171.38719° 8 min 0.27 0.02
317°
May 17, 13:51 7.08199° 171.38722° 2 min 0.27 0.00
May 17, 13:49 7.08199° 171.38722° 8 min 0.27 0.05
319°
May 17, 13:41 7.08190° 171.38730° 2 min 0.27 0.10
344°
May 17, 13:39 7.08185° 171.38731° 8 min 0.27 0.04
325°
May 17, 13:31 7.08178° 171.38736° 2 min 0.27 0.04
180°
May 17, 13:29 7.08180° 171.38736° 8 min 0.27 0.01
May 17, 13:21 7.08178° 171.38736° 2 min 0.27 0.03
270°
May 17, 13:19 7.08178° 171.38737° 8 min 0.27 0.02
25°
May 17, 13:11 7.08175° 171.38736° 2 min 0.27 0.00
May 17, 13:09 7.08175° 171.38736° 8 min 0.27 0.01
May 17, 13:01 7.08173° 171.38736° 2 min 0.26 0.00
May 17, 12:59 7.08173° 171.38736° 8 min 0.26 0.06
129°
May 17, 12:51 7.08182° 171.38725° 2 min 0.26 0.04
180°
May 17, 12:49 7.08184° 171.38725° 8 min 0.26 0.09
73°
May 17, 12:41 7.08178° 171.38707° 2 min 0.25 0.11
90°
May 17, 12:39 7.08178° 171.38701° 8 min 0.25 0.20
78°
May 17, 12:31 7.08169° 171.38657° 2 min 0.22 0.19
79°
May 17, 12:29 7.08167° 171.38646° 8 min 0.22 0.18
62°
May 17, 12:21 7.08148° 171.38611° 2 min 0.20 0.17
55°
May 17, 12:19 7.08143° 171.38603° 8 min 0.19 0.23
62°
May 17, 12:11 7.08118° 171.38557° 2 min 0.16 0.24
66°
May 17, 12:09 7.08113° 171.38545° 8 min 0.15 0.32
62°
May 17, 12:01 7.08080° 171.38483° 2 min 0.11 0.35
52°
May 17, 11:59 7.08068° 171.38467° 8 min 0.10 0.31
58°
May 17, 11:51 7.08031° 171.38409° 2 min 0.06 0.18
65°
May 17, 11:49 7.08027° 171.38400° 8 min 0.06 0.14
61°
May 17, 11:41 7.08012° 171.38373° 2 min 0.05 0.05
35°
May 17, 11:39 7.08010° 171.38371° 8 min 0.05 0.04
35°
May 17, 11:31 7.08003° 171.38367° 1 min 0.04 0.10
May 17, 11:29 7.07998° 171.38367° 8 min 0.04 0.05
292°
May 17, 11:21 7.07994° 171.38377° 2 min 0.04 0.11
270°
May 17, 11:19 7.07994° 171.38383° 8 min 0.04 0.14
264°
May 17, 11:11 7.07997° 171.38414° 2 min 0.05 0.12
298°
May 17, 11:09 7.07994° 171.38420° 20 min 0.05 0.05
338°
May 17, 10:49 7.07968° 171.38431° 8 min 0.05 0.01
270°
May 17, 10:41 7.07968° 171.38432° 2 min 0.05 0.06
290°
May 17, 10:39 7.07967° 171.38435° 8 min 0.05 0.08
277°
May 17, 10:31 7.07965° 171.38452° 2 min 0.06 0.06
290°
May 17, 10:29 7.07964° 171.38455° 8 min 0.06 0.10
259°
May 17, 10:21 7.07968° 171.38477° 2 min 0.07 0.14
254°
May 17, 10:19 7.07970° 171.38484° 8 min 0.08 0.20
248°
May 17, 10:11 7.07986° 171.38525° 2 min 0.10 0.17
251°
May 17, 10:09 7.07990° 171.38535° 8 min 0.11 0.19
222°
May 17, 10:01 7.08022° 171.38564° 2 min 0.13 0.16
223°
May 17, 09:59 7.08028° 171.38570° 8 min 0.14 0.21
221°
May 17, 09:51 7.08064° 171.38600° 2 min 0.16 0.23
227°
May 17, 09:49 7.08072° 171.38609° 8 min 0.17 0.20
215°
May 17, 09:41 7.08109° 171.38635° 2 min 0.19 0.21
221°
May 17, 09:39 7.08117° 171.38643° 8 min 0.20 0.09
222°
May 17, 09:31 7.08132° 171.38657° 2 min 0.21 0.04
May 17, 09:29 7.08130° 171.38657° 8 min 0.21 0.08
90°
May 17, 09:21 7.08130° 171.38640° 2 min 0.20 0.17
77°
May 17, 09:19 7.08128° 171.38631° 8 min 0.20 0.22
70°
May 17, 09:11 7.08112° 171.38585° 2 min 0.17 0.32
69°
May 17, 09:09 7.08105° 171.38568° 8 min 0.16 0.19
46°
May 17, 09:01 7.08076° 171.38538° 2 min 0.13 0.08
May 17, 08:59 7.08072° 171.38538° 8 min 0.13 0.01
270°
May 17, 08:51 7.08072° 171.38541° 2 min 0.13 0.09
296°
May 17, 08:49 7.08070° 171.38545° 8 min 0.14 0.12
274°
May 17, 08:41 7.08068° 171.38573° 2 min 0.15 0.08
270°
May 17, 08:39 7.08068° 171.38577° 8 min 0.15 0.05
270°
May 17, 08:31 7.08068° 171.38588° 2 min 0.16 0.04
180°
May 17, 08:29 7.08070° 171.38588° 8 min 0.16 0.07
65°
May 17, 08:21 7.08064° 171.38574° 2 min 0.15 0.06
25°
May 17, 08:19 7.08060° 171.38573° 8 min 0.15 0.03
54°
May 17, 08:11 7.08057° 171.38568° 2 min 0.14 0.08
270°
May 17, 08:09 7.08057° 171.38573° 8 min 0.15 0.18
232°
May 17, 08:01 7.08082° 171.38605° 2 min 0.17 0.20
235°
May 17, 07:59 7.08088° 171.38614° 8 min 0.18 0.13
272°
May 17, 07:51 7.08087° 171.38643° 2 min 0.19 0.11
227°
May 17, 07:49 7.08091° 171.38647° 8 min 0.19 0.09
237°
May 17, 07:41 7.08102° 171.38664° 2 min 0.21 0.18
230°
May 17, 07:39 7.08109° 171.38672° 8 min 0.21 0.12
242°
May 17, 07:31 7.08120° 171.38695° 1 min 0.23 0.20
287°
May 17, 07:29 7.08117° 171.38705° 8 min 0.23 0.14
268°
May 17, 07:21 7.08118° 171.38737° 2 min 0.25 0.05
270°
May 17, 07:19 7.08118° 171.38741° 8 min 0.25 0.03
155°
May 17, 07:11 7.08125° 171.38737° 2 min 0.25 0.15
131°
May 17, 07:09 7.08130° 171.38731° 8 min 0.25 0.07
138°
May 17, 07:01 7.08142° 171.38721° 2 min 0.25 0.03
125°
May 17, 06:59 7.08143° 171.38719° 8 min 0.25 0.03
180°
May 17, 06:51 7.08150° 171.38719° 2 min 0.25 0.08
180°
May 17, 06:49 7.08155° 171.38719° 8 min 0.25 0.03
270°
May 17, 06:41 7.08155° 171.38725° 2 min 0.25 0.06
180°
May 17, 06:39 7.08158° 171.38725° 8 min 0.25 0.10
261°
May 17, 06:31 7.08161° 171.38747° 2 min 0.27 0.02
May 17, 06:29 7.08160° 171.38747° 8 min 0.27 0.02
205°
May 17, 06:21 7.08163° 171.38748° 2 min 0.27 0.05
145°
May 17, 06:19 7.08165° 171.38747° 8 min 0.27 0.00
180°
May 17, 06:11 7.08167° 171.38747° 2 min 0.27 0.00
May 17, 06:09 7.08167° 171.38747° 8 min 0.27 0.03
251°
May 17, 06:01 7.08169° 171.38753° 2 min 0.27 0.03
270°
May 17, 05:59 7.08169° 171.38754°